| time (UTC) | temp C | wind direction | speed KPH | gust KPH | rain 1hr cm | rain 24hr cm | rain mn cm | humidity % | barometer mb |
| 20260505223524 | 23 | 0 | 14.5 | 27.4 | 0.00 | 0.00 | 0.00 | 38 | 1014.0 |
| 20260505222525 | 22 | 0 | 16.1 | 25.7 | 0.00 | 0.00 | 0.00 | 38 | 1013.8 |
| 20260505221524 | 22 | 0 | 14.5 | 22.5 | 0.00 | 0.00 | 0.00 | 37 | 1014.1 |
| 20260505220519 | 23 | 0 | 14.5 | 25.7 | 0.00 | 0.00 | 0.00 | 36 | 1014.5 |
| 20260505215518 | 23 | 0 | 12.9 | 24.1 | 0.00 | 0.00 | 0.00 | 36 | 1014.5 |
| 20260505214546 | 23 | 0 | 17.7 | 27.4 | 0.00 | 0.00 | 0.00 | 37 | 1014.2 |
| 20260505213523 | 22 | 0 | 14.5 | 22.5 | 0.00 | 0.00 | 0.00 | 37 | 1013.8 |
| 20260505212522 | 22 | 0 | 12.9 | 29.0 | 0.00 | 0.00 | 0.00 | 39 | 1014.3 |
| 20260505211523 | 22 | 0 | 14.5 | 25.7 | 0.00 | 0.00 | 0.00 | 38 | 1014.1 |
| 20260505210606 | 22 | 0 | 14.5 | 25.7 | 0.00 | 0.00 | 0.00 | 41 | 1014.0 |
| 20260505205521 | 21 | 0 | 14.5 | 27.4 | 0.00 | 0.00 | 0.00 | 42 | 1014.0 |
| 20260505204524 | 21 | 0 | 9.7 | 16.1 | 0.00 | 0.00 | 0.00 | 44 | 1013.8 |
| 20260505203522 | 21 | 0 | 11.3 | 17.7 | 0.00 | 0.00 | 0.00 | 42 | 1013.9 |
| 20260505202523 | 21 | 0 | 14.5 | 24.1 | 0.00 | 0.00 | 0.00 | 39 | 1014.0 |
| 20260505201523 | 22 | 0 | 14.5 | 24.1 | 0.00 | 0.00 | 0.00 | 38 | 1014.0 |
| 20260505200519 | 21 | 0 | 14.5 | 25.7 | 0.00 | 0.00 | 0.00 | 40 | 1014.2 |
| 20260505195523 | 21 | 0 | 12.9 | 17.7 | 0.00 | 0.00 | 0.00 | 38 | 1013.9 |
| 20260505194518 | 21 | 0 | 8.0 | 14.5 | 0.00 | 0.00 | 0.00 | 38 | 1014.3 |
| 20260505193543 | 21 | 0 | 3.2 | 11.3 | 0.00 | 0.00 | 0.00 | 38 | 1014.3 |
| 20260505192526 | 21 | 0 | 8.0 | 16.1 | 0.00 | 0.00 | 0.00 | 42 | 1014.1 |
| 20260505191524 | 20 | 0 | 8.0 | 20.9 | 0.00 | 0.00 | 0.00 | 44 | 1014.2 |
| 20260505190525 | 20 | 0 | 12.9 | 17.7 | 0.00 | 0.00 | 0.00 | 46 | 1013.8 |
| 20260505185524 | 20 | 0 | 11.3 | 20.9 | 0.00 | 0.00 | 0.00 | 49 | 1013.8 |
| 20260505184524 | 19 | 0 | 11.3 | 22.5 | 0.00 | 0.00 | 0.00 | 49 | 1013.9 |
| 20260505183518 | 18 | 0 | 14.5 | 22.5 | 0.00 | 0.00 | 0.00 | 54 | 1013.7 |
| 20260505182523 | 18 | 0 | 12.9 | 20.9 | 0.00 | 0.00 | 0.00 | 55 | 1013.8 |
| 20260505181523 | 17 | 0 | 12.9 | 17.7 | 0.00 | 0.00 | 0.00 | 52 | 1013.5 |
| 20260505180524 | 17 | 0 | 12.9 | 17.7 | 0.00 | 0.00 | 0.00 | 53 | 1013.5 |
| 20260505175522 | 17 | 0 | 8.0 | 14.5 | 0.00 | 0.00 | 0.00 | 53 | 1013.5 |
| 20260505174521 | 16 | 0 | 8.0 | 12.9 | 0.00 | 0.00 | 0.00 | 50 | 1013.1 |
| 20260505173517 | 16 | 0 | 9.7 | 16.1 | 0.00 | 0.00 | 0.00 | 50 | 1013.1 |
| 20260505172519 | 16 | 0 | 9.7 | 14.5 | 0.00 | 0.00 | 0.00 | 50 | 1013.1 |
| 20260505171523 | 15 | 0 | 11.3 | 16.1 | 0.00 | 0.00 | 0.00 | 52 | 1012.8 |
| 20260505170525 | 15 | 0 | 9.7 | 16.1 | 0.00 | 0.00 | 0.00 | 54 | 1012.8 |
| 20260505165525 | 15 | 0 | 11.3 | 16.1 | 0.00 | 0.00 | 0.00 | 57 | 1012.9 |
| 20260505164527 | 14 | 0 | 11.3 | 17.7 | 0.00 | 0.00 | 0.00 | 60 | 1012.6 |
| 20260505163524 | 13 | 0 | 12.9 | 17.7 | 0.00 | 0.00 | 0.00 | 62 | 1012.6 |
| 20260505162518 | 13 | 0 | 12.9 | 17.7 | 0.00 | 0.00 | 0.00 | 64 | 1012.3 |
| 20260505161523 | 13 | 0 | 12.9 | 17.7 | 0.00 | 0.00 | 0.00 | 66 | 1012.3 |
| 20260505160521 | 12 | 0 | 14.5 | 20.9 | 0.00 | 0.00 | 0.00 | 68 | 1012.3 |
| 20260505152524 | 11 | 338 | 1.6 | 8.0 | 0.00 | 0.00 | 0.00 | 75 | 1011.6 |
| 20260505151517 | 10 | 0 | 6.4 | 11.3 | 0.00 | 0.00 | 0.00 | 77 | 1011.6 |
| 20260505150542 | 10 | 0 | 1.6 | 9.7 | 0.00 | 0.00 | 0.00 | 82 | 1011.4 |
| 20260505140518 | 6 | 0 | 3.2 | 6.4 | 0.00 | 0.00 | 0.00 | 93 | 1010.2 |
| 20260505124524 | 6 | 0 | 1.6 | 6.4 | 0.00 | 0.00 | 0.00 | 90 | 1009.5 |
| 20260505123525 | 6 | 0 | 4.8 | 8.0 | 0.00 | 0.00 | 0.00 | 90 | 1009.3 |
| 20260505122526 | 6 | 338 | 1.6 | 6.4 | 0.00 | 0.00 | 0.00 | 89 | 1009.4 |
| 20260505121525 | 6 | 0.0 | 0.0 | 0.00 | 0.00 | 0.00 | 89 | 1009.3 | |
| 20260505120544 | 6 | 0.0 | 0.0 | 0.00 | 0.00 | 0.00 | 88 | 1009.2 | |
| 20260505115520 | 7 | 0.0 | 0.0 | 0.00 | 0.00 | 0.00 | 88 | 1009.5 | |
| 20260505114518 | 7 | 0.0 | 0.0 | 0.00 | 0.00 | 0.00 | 89 | 1009.3 | |
| 20260505113523 | 7 | 0.0 | 0.0 | 0.00 | 0.00 | 0.00 | 89 | 1009.3 | |
| 20260505112525 | 7 | 0.0 | 0.0 | 0.00 | 0.00 | 0.00 | 88 | 1009.2 | |
| 20260505111522 | 7 | 0.0 | 0.0 | 0.00 | 0.00 | 0.00 | 88 | 1009.2 | |
| 20260505110523 | 7 | 0.0 | 0.0 | 0.00 | 0.00 | 0.00 | 88 | 1009.1 | |
| 20260505101543 | 8 | 0 | 8.0 | 11.3 | 0.00 | 0.00 | 0.00 | 87 | 1009.2 |
| 20260505100524 | 8 | 0 | 6.4 | 9.7 | 0.00 | 0.00 | 0.00 | 87 | 1009.3 |
| 20260505095523 | 8 | 338 | 8.0 | 11.3 | 0.00 | 0.00 | 0.00 | 87 | 1009.4 |
| 20260505094523 | 8 | 338 | 6.4 | 11.3 | 0.00 | 0.00 | 0.00 | 87 | 1009.3 |
| 20260505093600 | 8 | 338 | 8.0 | 16.1 | 0.00 | 0.00 | 0.00 | 87 | 1009.4 |
| 20260505092517 | 8 | 338 | 8.0 | 11.3 | 0.00 | 0.00 | 0.00 | 87 | 1009.3 |
| 20260505091523 | 8 | 338 | 6.4 | 11.3 | 0.00 | 0.00 | 0.00 | 87 | 1009.3 |
| 20260505090524 | 8 | 0 | 4.8 | 8.0 | 0.00 | 0.00 | 0.00 | 86 | 1009.3 |
| 20260505085521 | 8 | 0 | 3.2 | 6.4 | 0.00 | 0.00 | 0.00 | 85 | 1009.2 |
| 20260505084522 | 8 | 0.0 | 0.0 | 0.00 | 0.00 | 0.00 | 85 | 1009.2 | |
| 20260505083543 | 8 | 0.0 | 0.0 | 0.00 | 0.00 | 0.00 | 84 | 1009.3 | |
| 20260505082518 | 9 | 0.0 | 0.0 | 0.00 | 0.00 | 0.00 | 84 | 1009.6 | |
| 20260505081538 | 9 | 0.0 | 4.8 | 0.00 | 0.00 | 0.00 | 84 | 1009.5 | |
| 20260505080522 | 9 | 0.0 | 0.0 | 0.00 | 0.00 | 0.00 | 83 | 1009.5 | |
| 20260505075523 | 10 | 0 | 3.2 | 6.4 | 0.00 | 0.00 | 0.00 | 83 | 1009.5 |
| 20260505074522 | 9 | 0 | 8.0 | 12.9 | 0.00 | 0.00 | 0.00 | 83 | 1009.3 |
| 20260505073523 | 10 | 0 | 9.7 | 12.9 | 0.00 | 0.00 | 0.00 | 82 | 1009.2 |
| 20260505072523 | 10 | 0 | 6.4 | 9.7 | 0.00 | 0.00 | 0.00 | 79 | 1009.6 |
| 20260505071540 | 11 | 0 | 6.4 | 12.9 | 0.00 | 0.00 | 0.00 | 79 | 1009.5 |
| 20260505070527 | 11 | 0 | 6.4 | 14.5 | 0.00 | 0.00 | 0.00 | 79 | 1009.4 |
| 20260505065522 | 11 | 0 | 6.4 | 12.9 | 0.00 | 0.00 | 0.00 | 78 | 1009.2 |
| 20260505064522 | 11 | 0 | 9.7 | 17.7 | 0.00 | 0.00 | 0.00 | 78 | 1009.4 |
| 20260505063524 | 11 | 0 | 9.7 | 17.7 | 0.00 | 0.00 | 0.00 | 78 | 1009.3 |
| 20260505062524 | 11 | 0 | 8.0 | 12.9 | 0.00 | 0.00 | 0.00 | 77 | 1009.1 |
| 20260505061522 | 11 | 0 | 9.7 | 16.1 | 0.00 | 0.00 | 0.00 | 76 | 1009.0 |
| 20260505060518 | 12 | 0 | 8.0 | 16.1 | 0.00 | 0.00 | 0.00 | 75 | 1008.9 |
| 20260505055520 | 12 | 0 | 11.3 | 19.3 | 0.00 | 0.00 | 0.00 | 75 | 1008.8 |
| 20260505054521 | 12 | 0 | 11.3 | 17.7 | 0.00 | 0.00 | 0.00 | 76 | 1008.8 |
| 20260505053527 | 11 | 0 | 8.0 | 12.9 | 0.00 | 0.00 | 0.00 | 76 | 1008.8 |
| 20260505052605 | 11 | 0 | 6.4 | 11.3 | 0.00 | 0.00 | 0.00 | 75 | 1008.9 |
| 20260505051525 | 12 | 0 | 4.8 | 9.7 | 0.00 | 0.00 | 0.00 | 73 | 1008.8 |
| 20260505050521 | 12 | 0 | 4.8 | 9.7 | 0.00 | 0.00 | 0.00 | 72 | 1009.0 |
| 20260505041522 | 13 | 0 | 12.9 | 17.7 | 0.00 | 0.00 | 0.00 | 69 | 1008.5 |
| 20260505040521 | 13 | 0 | 11.3 | 22.5 | 0.00 | 0.00 | 0.00 | 69 | 1008.2 |
| 20260505035525 | 14 | 0 | 11.3 | 19.3 | 0.00 | 0.00 | 0.00 | 68 | 1008.1 |
| 20260505034519 | 14 | 0 | 12.9 | 20.9 | 0.00 | 0.00 | 0.00 | 67 | 1008.0 |
| 20260505033524 | 15 | 0 | 17.7 | 29.0 | 0.00 | 0.00 | 0.00 | 66 | 1008.1 |
| 20260505032522 | 15 | 0 | 16.1 | 24.1 | 0.00 | 0.00 | 0.00 | 65 | 1008.0 |
| 20260505031524 | 15 | 0 | 20.9 | 29.0 | 0.00 | 0.00 | 0.00 | 64 | 1007.7 |
| 20260505030522 | 15 | 0 | 20.9 | 30.6 | 0.00 | 0.00 | 0.00 | 64 | 1007.5 |
| 20260505025623 | 16 | 0 | 20.9 | 32.2 | 0.00 | 0.00 | 0.00 | 64 | 1007.8 |
| 20260505024523 | 16 | 0 | 17.7 | 29.0 | 0.00 | 0.00 | 0.00 | 64 | 1007.7 |
| 20260505023540 | 16 | 0 | 20.9 | 35.4 | 0.00 | 0.00 | 0.00 | 66 | 1007.6 |
| 20260505022526 | 16 | 0 | 20.9 | 35.4 | 0.00 | 0.00 | 0.00 | 66 | 1007.6 |
| 20260505021525 | 16 | 0 | 20.9 | 32.2 | 0.00 | 0.00 | 0.00 | 66 | 1007.5 |
| 20260505020524 | 16 | 0 | 19.3 | 32.2 | 0.00 | 0.00 | 0.00 | 65 | 1007.4 |
| 20260505015522 | 16 | 0 | 14.5 | 24.1 | 0.00 | 0.00 | 0.00 | 65 | 1007.4 |
| 20260505014542 | 16 | 0 | 24.1 | 38.6 | 0.00 | 0.00 | 0.00 | 65 | 1007.5 |
| 20260505013522 | 17 | 0 | 24.1 | 41.8 | 0.00 | 0.00 | 0.00 | 63 | 1007.9 |
| 20260505012517 | 17 | 0 | 19.3 | 33.8 | 0.00 | 0.00 | 0.00 | 62 | 1008.0 |
| 20260505011524 | 18 | 0 | 20.9 | 35.4 | 0.00 | 0.00 | 0.00 | 64 | 1008.4 |
| 20260505010523 | 18 | 0 | 24.1 | 37.0 | 0.00 | 0.00 | 0.00 | 63 | 1008.5 |
| 20260505005522 | 18 | 0 | 16.1 | 27.4 | 0.00 | 0.00 | 0.00 | 61 | 1008.6 |
| 20260505004524 | 18 | 0 | 25.7 | 40.2 | 0.00 | 0.00 | 0.00 | 52 | 1008.5 |
| 20260505003526 | 18 | 0 | 27.4 | 37.0 | 0.00 | 0.00 | 0.00 | 53 | 1008.6 |
| 20260505002516 | 20 | 0 | 24.1 | 37.0 | 0.00 | 0.00 | 0.00 | 55 | 1008.7 |
| 20260505001538 | 20 | 0 | 24.1 | 41.8 | 0.00 | 0.00 | 0.00 | 50 | 1009.0 |
| 20260505000523 | 20 | 0 | 24.1 | 33.8 | 0.00 | 0.00 | 0.00 | 47 | 1009.0 |
| 20260504235542 | 21 | 0 | 22.5 | 35.4 | 0.00 | 0.00 | 0.00 | 44 | 1008.8 |
| 20260504234522 | 21 | 0 | 16.1 | 30.6 | 0.00 | 0.00 | 0.00 | 48 | 1008.8 |
| 20260504233543 | 20 | 0 | 20.9 | 35.4 | 0.00 | 0.03 | 0.00 | 54 | 1009.1 |
| 20260504232522 | 21 | 0 | 20.9 | 33.8 | 0.00 | 0.03 | 0.00 | 55 | 1009.2 |
| 20260504231518 | 21 | 0 | 16.1 | 25.7 | 0.00 | 0.03 | 0.00 | 49 | 1009.4 |
| 20260504230517 | 20 | 0 | 12.9 | 25.7 | 0.00 | 0.03 | 0.00 | 48 | 1009.2 |
| 20260504225521 | 20 | 0 | 17.7 | 30.6 | 0.00 | 0.03 | 0.00 | 50 | 1009.4 |
| 20260504224521 | 22 | 0 | 25.7 | 38.6 | 0.00 | 0.03 | 0.00 | 48 | 1009.8 |